sensor_id;sensor_type;location;lat;lon;timestamp;P1;durP1;ratioP1;P2;durP2;ratioP2
71513;SDS011;59335;46.652;21.272;2022-08-19T00:02:25;8.23;;;6.07;;
71513;SDS011;59335;46.652;21.272;2022-08-19T00:05:28;8.93;;;6.97;;
71513;SDS011;59335;46.652;21.272;2022-08-19T00:08:31;8.38;;;6.53;;
71513;SDS011;59335;46.652;21.272;2022-08-19T00:11:34;10.18;;;6.75;;
71513;SDS011;59335;46.652;21.272;2022-08-19T00:14:38;10.70;;;6.45;;
71513;SDS011;59335;46.652;21.272;2022-08-19T00:17:43;9.33;;;6.60;;
71513;SDS011;59335;46.652;21.272;2022-08-19T00:20:46;9.73;;;6.45;;
71513;SDS011;59335;46.652;21.272;2022-08-19T00:23:48;8.27;;;6.38;;
71513;SDS011;59335;46.652;21.272;2022-08-19T00:26:51;8.52;;;6.30;;
71513;SDS011;59335;46.652;21.272;2022-08-19T00:29:54;8.52;;;6.43;;
71513;SDS011;59335;46.652;21.272;2022-08-19T00:32:57;8.57;;;6.40;;
71513;SDS011;59335;46.652;21.272;2022-08-19T00:36:00;8.68;;;6.00;;
71513;SDS011;59335;46.652;21.272;2022-08-19T00:39:04;8.55;;;6.25;;
71513;SDS011;59335;46.652;21.272;2022-08-19T00:42:07;9.02;;;6.40;;
71513;SDS011;59335;46.652;21.272;2022-08-19T00:45:14;9.30;;;6.50;;
71513;SDS011;59335;46.652;21.272;2022-08-19T00:48:20;8.43;;;6.03;;
71513;SDS011;59335;46.652;21.272;2022-08-19T00:51:24;9.10;;;6.00;;
71513;SDS011;59335;46.652;21.272;2022-08-19T00:54:29;8.68;;;6.60;;
71513;SDS011;59335;46.652;21.272;2022-08-19T00:57:35;8.18;;;6.50;;
71513;SDS011;59335;46.652;21.272;2022-08-19T01:00:42;8.75;;;6.30;;
71513;SDS011;59335;46.652;21.272;2022-08-19T01:03:44;9.53;;;6.00;;
71513;SDS011;59335;46.652;21.272;2022-08-19T01:07:01;9.82;;;6.57;;
71513;SDS011;59335;46.652;21.272;2022-08-19T01:10:08;8.68;;;6.70;;
71513;SDS011;59335;46.652;21.272;2022-08-19T01:13:17;9.68;;;6.25;;
71513;SDS011;59335;46.652;21.272;2022-08-19T01:16:22;8.80;;;6.72;;
71513;SDS011;59335;46.652;21.272;2022-08-19T01:19:29;8.30;;;6.17;;
71513;SDS011;59335;46.652;21.272;2022-08-19T01:25:58;8.77;;;6.70;;
71513;SDS011;59335;46.652;21.272;2022-08-19T01:29:01;9.05;;;6.47;;
71513;SDS011;59335;46.652;21.272;2022-08-19T01:32:07;9.05;;;6.45;;
71513;SDS011;59335;46.652;21.272;2022-08-19T01:35:34;9.47;;;6.53;;
71513;SDS011;59335;46.652;21.272;2022-08-19T01:38:39;9.57;;;6.88;;
71513;SDS011;59335;46.652;21.272;2022-08-19T01:41:46;8.90;;;6.28;;
71513;SDS011;59335;46.652;21.272;2022-08-19T01:44:49;9.27;;;6.50;;
71513;SDS011;59335;46.652;21.272;2022-08-19T01:47:52;9.90;;;6.88;;
71513;SDS011;59335;46.652;21.272;2022-08-19T01:51:03;8.77;;;6.00;;
71513;SDS011;59335;46.652;21.272;2022-08-19T01:54:07;8.82;;;6.70;;
71513;SDS011;59335;46.652;21.272;2022-08-19T01:57:11;8.05;;;6.38;;
71513;SDS011;59335;46.652;21.272;2022-08-19T02:00:18;8.65;;;6.60;;
71513;SDS011;59335;46.652;21.272;2022-08-19T02:03:24;8.70;;;7.05;;
71513;SDS011;59335;46.652;21.272;2022-08-19T02:06:27;8.90;;;6.30;;
71513;SDS011;59335;46.652;21.272;2022-08-19T02:09:31;10.10;;;6.68;;
71513;SDS011;59335;46.652;21.272;2022-08-19T02:12:34;9.02;;;6.78;;
71513;SDS011;59335;46.652;21.272;2022-08-19T02:15:38;8.90;;;6.30;;
71513;SDS011;59335;46.652;21.272;2022-08-19T02:18:41;8.77;;;6.97;;
71513;SDS011;59335;46.652;21.272;2022-08-19T02:21:45;8.80;;;6.27;;
71513;SDS011;59335;46.652;21.272;2022-08-19T02:24:48;9.25;;;6.03;;
71513;SDS011;59335;46.652;21.272;2022-08-19T02:27:51;8.52;;;6.60;;
71513;SDS011;59335;46.652;21.272;2022-08-19T02:30:55;9.82;;;6.45;;
71513;SDS011;59335;46.652;21.272;2022-08-19T02:33:58;8.52;;;6.47;;
71513;SDS011;59335;46.652;21.272;2022-08-19T02:37:02;8.70;;;5.97;;
71513;SDS011;59335;46.652;21.272;2022-08-19T02:40:05;9.10;;;6.63;;
71513;SDS011;59335;46.652;21.272;2022-08-19T02:43:13;10.55;;;7.18;;
71513;SDS011;59335;46.652;21.272;2022-08-19T02:46:24;8.57;;;6.72;;
71513;SDS011;59335;46.652;21.272;2022-08-19T02:49:30;8.55;;;6.75;;
71513;SDS011;59335;46.652;21.272;2022-08-19T02:52:36;7.70;;;6.10;;
71513;SDS011;59335;46.652;21.272;2022-08-19T02:55:44;8.23;;;5.95;;
71513;SDS011;59335;46.652;21.272;2022-08-19T02:58:48;9.05;;;6.32;;
71513;SDS011;59335;46.652;21.272;2022-08-19T03:01:52;8.90;;;6.50;;
71513;SDS011;59335;46.652;21.272;2022-08-19T03:04:55;9.00;;;7.00;;
71513;SDS011;59335;46.652;21.272;2022-08-19T03:07:58;9.10;;;6.40;;
71513;SDS011;59335;46.652;21.272;2022-08-19T03:11:01;9.70;;;6.50;;
71513;SDS011;59335;46.652;21.272;2022-08-19T03:14:04;9.98;;;6.60;;
71513;SDS011;59335;46.652;21.272;2022-08-19T03:17:08;8.70;;;6.25;;
71513;SDS011;59335;46.652;21.272;2022-08-19T03:20:11;9.05;;;6.00;;
71513;SDS011;59335;46.652;21.272;2022-08-19T03:23:15;8.20;;;6.50;;
71513;SDS011;59335;46.652;21.272;2022-08-19T03:26:18;8.85;;;6.63;;
71513;SDS011;59335;46.652;21.272;2022-08-19T03:29:21;8.90;;;6.20;;
71513;SDS011;59335;46.652;21.272;2022-08-19T03:32:32;8.63;;;6.60;;
71513;SDS011;59335;46.652;21.272;2022-08-19T03:35:36;9.32;;;6.40;;
71513;SDS011;59335;46.652;21.272;2022-08-19T03:38:40;9.30;;;6.43;;
71513;SDS011;59335;46.652;21.272;2022-08-19T03:41:45;8.52;;;6.45;;
71513;SDS011;59335;46.652;21.272;2022-08-19T03:45:11;8.93;;;7.13;;
71513;SDS011;59335;46.652;21.272;2022-08-19T03:48:14;8.13;;;6.20;;
71513;SDS011;59335;46.652;21.272;2022-08-19T03:51:23;10.18;;;6.57;;
71513;SDS011;59335;46.652;21.272;2022-08-19T03:54:32;8.77;;;6.10;;
71513;SDS011;59335;46.652;21.272;2022-08-19T03:57:35;8.60;;;6.35;;
71513;SDS011;59335;46.652;21.272;2022-08-19T04:00:41;9.68;;;6.68;;
71513;SDS011;59335;46.652;21.272;2022-08-19T04:03:44;9.25;;;6.43;;
71513;SDS011;59335;46.652;21.272;2022-08-19T04:06:48;7.93;;;6.65;;
71513;SDS011;59335;46.652;21.272;2022-08-19T04:09:51;8.37;;;6.20;;
71513;SDS011;59335;46.652;21.272;2022-08-19T04:12:55;9.13;;;6.35;;
71513;SDS011;59335;46.652;21.272;2022-08-19T04:15:57;9.10;;;6.65;;
71513;SDS011;59335;46.652;21.272;2022-08-19T04:19:02;8.68;;;6.65;;
71513;SDS011;59335;46.652;21.272;2022-08-19T04:22:08;7.88;;;6.28;;
71513;SDS011;59335;46.652;21.272;2022-08-19T04:25:13;8.00;;;6.33;;
71513;SDS011;59335;46.652;21.272;2022-08-19T04:28:16;8.57;;;6.20;;
71513;SDS011;59335;46.652;21.272;2022-08-19T04:31:20;9.18;;;6.25;;
71513;SDS011;59335;46.652;21.272;2022-08-19T04:34:28;7.80;;;6.25;;
71513;SDS011;59335;46.652;21.272;2022-08-19T04:37:31;9.13;;;6.63;;
71513;SDS011;59335;46.652;21.272;2022-08-19T04:40:40;8.30;;;6.67;;
71513;SDS011;59335;46.652;21.272;2022-08-19T04:44:03;9.10;;;6.57;;
71513;SDS011;59335;46.652;21.272;2022-08-19T04:47:06;8.27;;;6.50;;
71513;SDS011;59335;46.652;21.272;2022-08-19T04:50:12;8.65;;;6.22;;
71513;SDS011;59335;46.652;21.272;2022-08-19T04:53:15;11.30;;;8.48;;
71513;SDS011;59335;46.652;21.272;2022-08-19T04:56:18;13.37;;;9.13;;
71513;SDS011;59335;46.652;21.272;2022-08-19T04:59:22;14.90;;;9.77;;
71513;SDS011;59335;46.652;21.272;2022-08-19T05:02:25;16.33;;;10.35;;
71513;SDS011;59335;46.652;21.272;2022-08-19T05:05:28;12.98;;;9.38;;
71513;SDS011;59335;46.652;21.272;2022-08-19T05:08:46;12.95;;;8.57;;
71513;SDS011;59335;46.652;21.272;2022-08-19T05:11:51;14.50;;;8.50;;
71513;SDS011;59335;46.652;21.272;2022-08-19T05:14:55;12.68;;;8.07;;
71513;SDS011;59335;46.652;21.272;2022-08-19T05:17:59;10.57;;;8.18;;
71513;SDS011;59335;46.652;21.272;2022-08-19T05:21:22;11.55;;;7.80;;
71513;SDS011;59335;46.652;21.272;2022-08-19T05:24:44;12.82;;;8.65;;
71513;SDS011;59335;46.652;21.272;2022-08-19T05:28:06;11.07;;;8.00;;
71513;SDS011;59335;46.652;21.272;2022-08-19T05:31:09;10.38;;;7.45;;
71513;SDS011;59335;46.652;21.272;2022-08-19T05:34:12;11.60;;;7.75;;
71513;SDS011;59335;46.652;21.272;2022-08-19T05:37:21;9.80;;;7.28;;
71513;SDS011;59335;46.652;21.272;2022-08-19T05:40:24;10.25;;;7.50;;
71513;SDS011;59335;46.652;21.272;2022-08-19T05:43:27;9.90;;;7.70;;
71513;SDS011;59335;46.652;21.272;2022-08-19T05:46:30;12.88;;;8.02;;
71513;SDS011;59335;46.652;21.272;2022-08-19T05:49:33;11.30;;;7.80;;
71513;SDS011;59335;46.652;21.272;2022-08-19T05:52:36;10.70;;;7.60;;
71513;SDS011;59335;46.652;21.272;2022-08-19T05:55:51;12.85;;;8.10;;
71513;SDS011;59335;46.652;21.272;2022-08-19T05:58:54;13.23;;;7.70;;
71513;SDS011;59335;46.652;21.272;2022-08-19T06:02:01;11.32;;;7.28;;
71513;SDS011;59335;46.652;21.272;2022-08-19T06:05:05;11.77;;;7.40;;
71513;SDS011;59335;46.652;21.272;2022-08-19T06:08:11;9.73;;;7.40;;
71513;SDS011;59335;46.652;21.272;2022-08-19T06:14:20;10.10;;;7.40;;
71513;SDS011;59335;46.652;21.272;2022-08-19T06:17:29;9.90;;;7.35;;
71513;SDS011;59335;46.652;21.272;2022-08-19T06:20:33;10.85;;;7.15;;
71513;SDS011;59335;46.652;21.272;2022-08-19T06:23:56;9.55;;;6.93;;
71513;SDS011;59335;46.652;21.272;2022-08-19T06:27:00;12.02;;;6.82;;
71513;SDS011;59335;46.652;21.272;2022-08-19T06:30:04;8.87;;;6.90;;
71513;SDS011;59335;46.652;21.272;2022-08-19T06:33:07;9.65;;;7.00;;
71513;SDS011;59335;46.652;21.272;2022-08-19T06:36:33;11.05;;;7.00;;
71513;SDS011;59335;46.652;21.272;2022-08-19T06:39:40;10.40;;;7.03;;
71513;SDS011;59335;46.652;21.272;2022-08-19T06:42:45;10.60;;;6.97;;
71513;SDS011;59335;46.652;21.272;2022-08-19T06:45:56;9.17;;;6.53;;
71513;SDS011;59335;46.652;21.272;2022-08-19T06:49:00;11.02;;;7.35;;
71513;SDS011;59335;46.652;21.272;2022-08-19T06:52:03;12.00;;;7.00;;
71513;SDS011;59335;46.652;21.272;2022-08-19T06:55:07;8.48;;;6.88;;
71513;SDS011;59335;46.652;21.272;2022-08-19T06:58:10;11.02;;;7.38;;
71513;SDS011;59335;46.652;21.272;2022-08-19T07:01:13;11.23;;;6.53;;
71513;SDS011;59335;46.652;21.272;2022-08-19T07:04:16;11.05;;;6.35;;
71513;SDS011;59335;46.652;21.272;2022-08-19T07:07:21;11.50;;;7.00;;
71513;SDS011;59335;46.652;21.272;2022-08-19T07:10:24;10.98;;;6.85;;
71513;SDS011;59335;46.652;21.272;2022-08-19T07:13:27;9.07;;;7.20;;
71513;SDS011;59335;46.652;21.272;2022-08-19T07:16:30;10.53;;;6.43;;
71513;SDS011;59335;46.652;21.272;2022-08-19T07:19:33;9.60;;;6.80;;
71513;SDS011;59335;46.652;21.272;2022-08-19T07:22:36;10.60;;;6.93;;
71513;SDS011;59335;46.652;21.272;2022-08-19T07:25:39;9.80;;;6.68;;
71513;SDS011;59335;46.652;21.272;2022-08-19T07:28:42;8.32;;;6.68;;
71513;SDS011;59335;46.652;21.272;2022-08-19T07:31:53;9.40;;;6.30;;
71513;SDS011;59335;46.652;21.272;2022-08-19T07:35:01;11.50;;;7.35;;
71513;SDS011;59335;46.652;21.272;2022-08-19T07:38:05;8.90;;;6.57;;
71513;SDS011;59335;46.652;21.272;2022-08-19T07:41:12;9.25;;;6.25;;
71513;SDS011;59335;46.652;21.272;2022-08-19T07:44:18;9.93;;;6.70;;
71513;SDS011;59335;46.652;21.272;2022-08-19T07:47:22;8.93;;;7.27;;
71513;SDS011;59335;46.652;21.272;2022-08-19T07:50:45;9.85;;;7.00;;
71513;SDS011;59335;46.652;21.272;2022-08-19T07:53:48;9.85;;;6.90;;
71513;SDS011;59335;46.652;21.272;2022-08-19T07:56:52;8.98;;;6.32;;
71513;SDS011;59335;46.652;21.272;2022-08-19T07:59:55;9.38;;;6.60;;
71513;SDS011;59335;46.652;21.272;2022-08-19T08:02:58;10.93;;;6.90;;
71513;SDS011;59335;46.652;21.272;2022-08-19T08:06:01;10.05;;;6.70;;
71513;SDS011;59335;46.652;21.272;2022-08-19T08:09:24;9.23;;;7.03;;
71513;SDS011;59335;46.652;21.272;2022-08-19T08:12:37;9.95;;;6.88;;
71513;SDS011;59335;46.652;21.272;2022-08-19T08:16:03;10.32;;;6.97;;
71513;SDS011;59335;46.652;21.272;2022-08-19T08:19:11;10.97;;;6.80;;
71513;SDS011;59335;46.652;21.272;2022-08-19T08:22:26;9.90;;;7.05;;
71513;SDS011;59335;46.652;21.272;2022-08-19T08:25:48;9.95;;;7.25;;
71513;SDS011;59335;46.652;21.272;2022-08-19T08:28:51;10.88;;;7.32;;
71513;SDS011;59335;46.652;21.272;2022-08-19T08:31:55;13.40;;;7.22;;
71513;SDS011;59335;46.652;21.272;2022-08-19T08:35:01;10.10;;;7.13;;
71513;SDS011;59335;46.652;21.272;2022-08-19T08:38:04;10.70;;;7.18;;
71513;SDS011;59335;46.652;21.272;2022-08-19T12:21:48;10.02;;;6.30;;
71513;SDS011;59335;46.652;21.272;2022-08-19T12:24:51;9.73;;;5.78;;
71513;SDS011;59335;46.652;21.272;2022-08-19T12:28:03;7.77;;;5.80;;
71513;SDS011;59335;46.652;21.272;2022-08-19T12:31:06;10.10;;;6.50;;
71513;SDS011;59335;46.652;21.272;2022-08-19T12:34:09;9.15;;;6.32;;
71513;SDS011;59335;46.652;21.272;2022-08-19T12:37:12;10.55;;;6.43;;
71513;SDS011;59335;46.652;21.272;2022-08-19T12:40:15;8.57;;;5.72;;
71513;SDS011;59335;46.652;21.272;2022-08-19T12:43:20;8.87;;;5.87;;
71513;SDS011;59335;46.652;21.272;2022-08-19T12:46:22;8.52;;;6.22;;
71513;SDS011;59335;46.652;21.272;2022-08-19T12:49:27;9.60;;;6.20;;
71513;SDS011;59335;46.652;21.272;2022-08-19T12:52:51;8.55;;;5.97;;
71513;SDS011;59335;46.652;21.272;2022-08-19T12:55:57;8.68;;;6.10;;
71513;SDS011;59335;46.652;21.272;2022-08-19T12:59:02;9.17;;;6.33;;
71513;SDS011;59335;46.652;21.272;2022-08-19T13:02:07;9.70;;;6.00;;
71513;SDS011;59335;46.652;21.272;2022-08-19T13:05:11;9.10;;;6.47;;
71513;SDS011;59335;46.652;21.272;2022-08-19T13:08:16;8.27;;;6.07;;
71513;SDS011;59335;46.652;21.272;2022-08-19T13:11:20;8.27;;;5.97;;
71513;SDS011;59335;46.652;21.272;2022-08-19T13:14:25;8.93;;;6.13;;
71513;SDS011;59335;46.652;21.272;2022-08-19T13:17:28;7.82;;;6.00;;
71513;SDS011;59335;46.652;21.272;2022-08-19T13:20:30;8.50;;;6.13;;
71513;SDS011;59335;46.652;21.272;2022-08-19T13:23:34;7.57;;;5.50;;
71513;SDS011;59335;46.652;21.272;2022-08-19T13:26:37;9.15;;;6.43;;
71513;SDS011;59335;46.652;21.272;2022-08-19T13:29:40;9.50;;;6.13;;
71513;SDS011;59335;46.652;21.272;2022-08-19T13:33:02;8.05;;;6.15;;
71513;SDS011;59335;46.652;21.272;2022-08-19T13:36:17;9.45;;;6.30;;
71513;SDS011;59335;46.652;21.272;2022-08-19T13:39:19;9.10;;;6.22;;
71513;SDS011;59335;46.652;21.272;2022-08-19T13:42:25;9.18;;;6.40;;
71513;SDS011;59335;46.652;21.272;2022-08-19T13:45:28;7.63;;;5.63;;
71513;SDS011;59335;46.652;21.272;2022-08-19T13:48:36;8.75;;;6.38;;
71513;SDS011;59335;46.652;21.272;2022-08-19T13:51:39;8.88;;;6.20;;
71513;SDS011;59335;46.652;21.272;2022-08-19T13:54:43;9.15;;;6.05;;
71513;SDS011;59335;46.652;21.272;2022-08-19T13:57:45;9.80;;;6.38;;
71513;SDS011;59335;46.652;21.272;2022-08-19T14:00:51;8.23;;;6.00;;
71513;SDS011;59335;46.652;21.272;2022-08-19T14:03:54;8.95;;;5.80;;
71513;SDS011;59335;46.652;21.272;2022-08-19T14:06:57;7.55;;;5.93;;
71513;SDS011;59335;46.652;21.272;2022-08-19T14:09:59;8.55;;;5.90;;
71513;SDS011;59335;46.652;21.272;2022-08-19T14:13:03;7.97;;;5.72;;
71513;SDS011;59335;46.652;21.272;2022-08-19T14:16:09;8.30;;;5.43;;
71513;SDS011;59335;46.652;21.272;2022-08-19T14:19:14;7.80;;;5.93;;
71513;SDS011;59335;46.652;21.272;2022-08-19T14:22:16;8.38;;;6.10;;
71513;SDS011;59335;46.652;21.272;2022-08-19T14:25:24;8.43;;;6.25;;
71513;SDS011;59335;46.652;21.272;2022-08-19T14:28:29;7.65;;;5.95;;
71513;SDS011;59335;46.652;21.272;2022-08-19T14:31:32;7.67;;;6.03;;
71513;SDS011;59335;46.652;21.272;2022-08-19T14:34:34;8.93;;;5.88;;
71513;SDS011;59335;46.652;21.272;2022-08-19T14:37:39;9.02;;;5.75;;
71513;SDS011;59335;46.652;21.272;2022-08-19T14:40:46;7.97;;;5.60;;
71513;SDS011;59335;46.652;21.272;2022-08-19T14:43:55;9.82;;;6.20;;
71513;SDS011;59335;46.652;21.272;2022-08-19T14:46:59;7.70;;;5.77;;
71513;SDS011;59335;46.652;21.272;2022-08-19T14:50:05;8.82;;;5.60;;
71513;SDS011;59335;46.652;21.272;2022-08-19T14:53:11;7.90;;;5.80;;
71513;SDS011;59335;46.652;21.272;2022-08-19T14:56:15;8.15;;;5.63;;
71513;SDS011;59335;46.652;21.272;2022-08-19T14:59:20;9.25;;;5.75;;
71513;SDS011;59335;46.652;21.272;2022-08-19T15:02:23;7.57;;;5.47;;
71513;SDS011;59335;46.652;21.272;2022-08-19T15:05:36;8.73;;;5.72;;
71513;SDS011;59335;46.652;21.272;2022-08-19T15:08:39;7.70;;;5.80;;
71513;SDS011;59335;46.652;21.272;2022-08-19T15:11:43;9.77;;;6.00;;
71513;SDS011;59335;46.652;21.272;2022-08-19T15:14:45;9.00;;;5.97;;
71513;SDS011;59335;46.652;21.272;2022-08-19T15:17:57;8.83;;;5.83;;
71513;SDS011;59335;46.652;21.272;2022-08-19T15:21:04;7.00;;;5.20;;
71513;SDS011;59335;46.652;21.272;2022-08-19T15:24:07;7.80;;;5.97;;
71513;SDS011;59335;46.652;21.272;2022-08-19T15:27:11;7.13;;;5.20;;
71513;SDS011;59335;46.652;21.272;2022-08-19T15:30:18;7.93;;;5.65;;
71513;SDS011;59335;46.652;21.272;2022-08-19T15:33:23;7.90;;;5.80;;
71513;SDS011;59335;46.652;21.272;2022-08-19T15:36:28;9.02;;;5.80;;
71513;SDS011;59335;46.652;21.272;2022-08-19T15:39:31;7.40;;;5.50;;
71513;SDS011;59335;46.652;21.272;2022-08-19T15:42:34;8.65;;;6.05;;
71513;SDS011;59335;46.652;21.272;2022-08-19T15:45:38;8.10;;;5.88;;
71513;SDS011;59335;46.652;21.272;2022-08-19T15:48:50;7.83;;;5.60;;
71513;SDS011;59335;46.652;21.272;2022-08-19T15:52:00;9.00;;;5.60;;
71513;SDS011;59335;46.652;21.272;2022-08-19T15:55:04;8.02;;;5.65;;
71513;SDS011;59335;46.652;21.272;2022-08-19T15:58:10;8.10;;;5.70;;
71513;SDS011;59335;46.652;21.272;2022-08-19T16:01:32;8.40;;;6.20;;
71513;SDS011;59335;46.652;21.272;2022-08-19T16:04:41;7.50;;;5.37;;
71513;SDS011;59335;46.652;21.272;2022-08-19T16:08:03;7.55;;;5.43;;
71513;SDS011;59335;46.652;21.272;2022-08-19T16:11:06;8.27;;;6.00;;
71513;SDS011;59335;46.652;21.272;2022-08-19T16:14:09;7.45;;;5.80;;
71513;SDS011;59335;46.652;21.272;2022-08-19T16:17:12;7.25;;;5.55;;
71513;SDS011;59335;46.652;21.272;2022-08-19T16:20:14;7.50;;;5.63;;
71513;SDS011;59335;46.652;21.272;2022-08-19T16:23:25;7.53;;;5.25;;
71513;SDS011;59335;46.652;21.272;2022-08-19T16:26:29;7.75;;;5.57;;
71513;SDS011;59335;46.652;21.272;2022-08-19T16:29:33;7.90;;;5.50;;
71513;SDS011;59335;46.652;21.272;2022-08-19T16:32:43;8.38;;;5.72;;
71513;SDS011;59335;46.652;21.272;2022-08-19T16:35:46;7.77;;;5.33;;
71513;SDS011;59335;46.652;21.272;2022-08-19T16:38:59;8.27;;;5.43;;
71513;SDS011;59335;46.652;21.272;2022-08-19T16:42:03;6.55;;;5.15;;
71513;SDS011;59335;46.652;21.272;2022-08-19T16:45:08;7.75;;;5.05;;
71513;SDS011;59335;46.652;21.272;2022-08-19T16:48:11;7.28;;;5.40;;
71513;SDS011;59335;46.652;21.272;2022-08-19T16:51:14;9.73;;;6.00;;
71513;SDS011;59335;46.652;21.272;2022-08-19T16:54:17;7.40;;;5.60;;
71513;SDS011;59335;46.652;21.272;2022-08-19T16:57:20;7.47;;;5.35;;
71513;SDS011;59335;46.652;21.272;2022-08-19T17:00:25;8.10;;;5.78;;
71513;SDS011;59335;46.652;21.272;2022-08-19T17:03:28;7.15;;;5.18;;
71513;SDS011;59335;46.652;21.272;2022-08-19T17:06:39;8.03;;;5.60;;
71513;SDS011;59335;46.652;21.272;2022-08-19T17:09:42;7.72;;;5.72;;
71513;SDS011;59335;46.652;21.272;2022-08-19T17:12:47;7.90;;;5.53;;
71513;SDS011;59335;46.652;21.272;2022-08-19T17:15:50;7.32;;;5.80;;
71513;SDS011;59335;46.652;21.272;2022-08-19T17:18:53;7.25;;;5.40;;
71513;SDS011;59335;46.652;21.272;2022-08-19T17:21:57;7.40;;;5.40;;
71513;SDS011;59335;46.652;21.272;2022-08-19T17:25:00;8.30;;;5.60;;
71513;SDS011;59335;46.652;21.272;2022-08-19T17:28:07;8.70;;;5.65;;
71513;SDS011;59335;46.652;21.272;2022-08-19T17:31:14;7.38;;;5.20;;
71513;SDS011;59335;46.652;21.272;2022-08-19T17:34:17;7.63;;;5.97;;
71513;SDS011;59335;46.652;21.272;2022-08-19T17:37:19;8.67;;;5.97;;
71513;SDS011;59335;46.652;21.272;2022-08-19T17:40:22;9.15;;;6.50;;
71513;SDS011;59335;46.652;21.272;2022-08-19T17:43:31;7.82;;;5.60;;
71513;SDS011;59335;46.652;21.272;2022-08-19T17:46:41;8.25;;;5.55;;
71513;SDS011;59335;46.652;21.272;2022-08-19T17:49:45;8.25;;;6.00;;
71513;SDS011;59335;46.652;21.272;2022-08-19T17:52:48;8.10;;;5.97;;
71513;SDS011;59335;46.652;21.272;2022-08-19T17:55:53;8.60;;;6.07;;
71513;SDS011;59335;46.652;21.272;2022-08-19T17:58:56;8.45;;;6.07;;
71513;SDS011;59335;46.652;21.272;2022-08-19T18:02:03;9.40;;;6.65;;
71513;SDS011;59335;46.652;21.272;2022-08-19T18:05:07;8.20;;;5.78;;
71513;SDS011;59335;46.652;21.272;2022-08-19T18:08:10;8.30;;;5.73;;
71513;SDS011;59335;46.652;21.272;2022-08-19T18:11:14;9.13;;;6.20;;
71513;SDS011;59335;46.652;21.272;2022-08-19T18:14:17;9.40;;;5.80;;
71513;SDS011;59335;46.652;21.272;2022-08-19T18:17:19;8.13;;;5.88;;
71513;SDS011;59335;46.652;21.272;2022-08-19T18:20:24;8.60;;;6.05;;
71513;SDS011;59335;46.652;21.272;2022-08-19T18:23:27;9.03;;;5.70;;
71513;SDS011;59335;46.652;21.272;2022-08-19T18:26:46;7.90;;;5.57;;
71513;SDS011;59335;46.652;21.272;2022-08-19T18:29:50;9.18;;;6.57;;
71513;SDS011;59335;46.652;21.272;2022-08-19T18:32:52;10.07;;;6.13;;
71513;SDS011;59335;46.652;21.272;2022-08-19T18:35:55;8.10;;;5.88;;
71513;SDS011;59335;46.652;21.272;2022-08-19T18:38:58;8.23;;;6.00;;
71513;SDS011;59335;46.652;21.272;2022-08-19T18:42:21;8.70;;;6.07;;
71513;SDS011;59335;46.652;21.272;2022-08-19T18:45:43;9.52;;;6.68;;
71513;SDS011;59335;46.652;21.272;2022-08-19T18:49:08;9.85;;;6.80;;
71513;SDS011;59335;46.652;21.272;2022-08-19T18:52:12;9.10;;;6.20;;
71513;SDS011;59335;46.652;21.272;2022-08-19T18:55:15;7.67;;;6.07;;
71513;SDS011;59335;46.652;21.272;2022-08-19T18:58:20;8.25;;;5.55;;
71513;SDS011;59335;46.652;21.272;2022-08-19T19:01:31;8.40;;;6.25;;
71513;SDS011;59335;46.652;21.272;2022-08-19T19:04:37;8.50;;;5.85;;
71513;SDS011;59335;46.652;21.272;2022-08-19T19:07:40;8.30;;;6.25;;
71513;SDS011;59335;46.652;21.272;2022-08-19T19:10:43;9.30;;;6.13;;
71513;SDS011;59335;46.652;21.272;2022-08-19T19:13:47;8.23;;;5.90;;
71513;SDS011;59335;46.652;21.272;2022-08-19T19:16:50;8.68;;;6.30;;
71513;SDS011;59335;46.652;21.272;2022-08-19T19:19:53;8.13;;;6.00;;
71513;SDS011;59335;46.652;21.272;2022-08-19T19:22:56;8.55;;;6.40;;
71513;SDS011;59335;46.652;21.272;2022-08-19T19:26:00;11.17;;;6.20;;
71513;SDS011;59335;46.652;21.272;2022-08-19T19:29:03;8.98;;;5.82;;
71513;SDS011;59335;46.652;21.272;2022-08-19T19:32:07;8.55;;;5.88;;
71513;SDS011;59335;46.652;21.272;2022-08-19T19:35:12;8.85;;;6.25;;
71513;SDS011;59335;46.652;21.272;2022-08-19T19:38:14;9.60;;;6.40;;
71513;SDS011;59335;46.652;21.272;2022-08-19T19:41:19;8.73;;;6.10;;
71513;SDS011;59335;46.652;21.272;2022-08-19T19:44:27;8.80;;;6.10;;
71513;SDS011;59335;46.652;21.272;2022-08-19T19:47:34;8.27;;;6.07;;
71513;SDS011;59335;46.652;21.272;2022-08-19T19:50:36;8.85;;;6.03;;
71513;SDS011;59335;46.652;21.272;2022-08-19T19:53:39;9.57;;;6.13;;
71513;SDS011;59335;46.652;21.272;2022-08-19T19:56:42;9.13;;;6.07;;
71513;SDS011;59335;46.652;21.272;2022-08-19T19:59:46;8.57;;;5.75;;
71513;SDS011;59335;46.652;21.272;2022-08-19T20:02:52;8.13;;;6.18;;
71513;SDS011;59335;46.652;21.272;2022-08-19T20:05:57;9.00;;;6.50;;
71513;SDS011;59335;46.652;21.272;2022-08-19T20:09:00;9.65;;;6.25;;
71513;SDS011;59335;46.652;21.272;2022-08-19T20:12:09;8.73;;;6.10;;
71513;SDS011;59335;46.652;21.272;2022-08-19T20:15:12;8.50;;;6.03;;
71513;SDS011;59335;46.652;21.272;2022-08-19T20:18:16;8.73;;;6.20;;
71513;SDS011;59335;46.652;21.272;2022-08-19T20:21:18;10.77;;;6.32;;
71513;SDS011;59335;46.652;21.272;2022-08-19T20:24:23;9.13;;;6.50;;
71513;SDS011;59335;46.652;21.272;2022-08-19T20:27:29;8.90;;;6.30;;
71513;SDS011;59335;46.652;21.272;2022-08-19T20:30:41;10.00;;;6.55;;
71513;SDS011;59335;46.652;21.272;2022-08-19T20:33:49;9.77;;;6.60;;
71513;SDS011;59335;46.652;21.272;2022-08-19T20:36:52;8.85;;;6.20;;
71513;SDS011;59335;46.652;21.272;2022-08-19T20:39:54;8.60;;;6.25;;
71513;SDS011;59335;46.652;21.272;2022-08-19T20:42:57;9.23;;;6.67;;
71513;SDS011;59335;46.652;21.272;2022-08-19T20:46:00;9.00;;;6.40;;
71513;SDS011;59335;46.652;21.272;2022-08-19T20:49:06;9.07;;;6.57;;
71513;SDS011;59335;46.652;21.272;2022-08-19T20:52:09;9.10;;;6.38;;
71513;SDS011;59335;46.652;21.272;2022-08-19T20:55:12;8.27;;;6.15;;
71513;SDS011;59335;46.652;21.272;2022-08-19T20:58:15;9.00;;;6.50;;
71513;SDS011;59335;46.652;21.272;2022-08-19T21:01:19;9.10;;;6.53;;
71513;SDS011;59335;46.652;21.272;2022-08-19T21:04:22;8.32;;;6.25;;
71513;SDS011;59335;46.652;21.272;2022-08-19T21:07:25;8.50;;;6.13;;
71513;SDS011;59335;46.652;21.272;2022-08-19T21:10:40;8.57;;;6.28;;
71513;SDS011;59335;46.652;21.272;2022-08-19T21:13:43;8.63;;;6.07;;
71513;SDS011;59335;46.652;21.272;2022-08-19T21:16:46;8.60;;;6.07;;
71513;SDS011;59335;46.652;21.272;2022-08-19T21:19:48;8.65;;;6.57;;
71513;SDS011;59335;46.652;21.272;2022-08-19T21:22:51;8.88;;;6.30;;
71513;SDS011;59335;46.652;21.272;2022-08-19T21:25:54;8.98;;;6.05;;
71513;SDS011;59335;46.652;21.272;2022-08-19T21:28:59;9.00;;;6.27;;
71513;SDS011;59335;46.652;21.272;2022-08-19T21:32:02;8.75;;;6.40;;
71513;SDS011;59335;46.652;21.272;2022-08-19T21:35:05;8.82;;;6.55;;
71513;SDS011;59335;46.652;21.272;2022-08-19T21:38:08;9.20;;;6.18;;
71513;SDS011;59335;46.652;21.272;2022-08-19T21:41:10;9.52;;;6.85;;
71513;SDS011;59335;46.652;21.272;2022-08-19T21:44:13;8.80;;;5.93;;
71513;SDS011;59335;46.652;21.272;2022-08-19T21:47:16;8.32;;;6.15;;
71513;SDS011;59335;46.652;21.272;2022-08-19T21:50:18;9.00;;;6.95;;
71513;SDS011;59335;46.652;21.272;2022-08-19T21:53:21;9.13;;;5.90;;
71513;SDS011;59335;46.652;21.272;2022-08-19T21:56:24;9.27;;;6.75;;
71513;SDS011;59335;46.652;21.272;2022-08-19T21:59:26;9.03;;;6.17;;
71513;SDS011;59335;46.652;21.272;2022-08-19T22:02:29;9.38;;;6.18;;
71513;SDS011;59335;46.652;21.272;2022-08-19T22:05:32;8.65;;;6.25;;
71513;SDS011;59335;46.652;21.272;2022-08-19T22:08:35;9.75;;;6.00;;